sensor_id;sensor_type;location;lat;lon;timestamp;P1;durP1;ratioP1;P2;durP2;ratioP2
34142;SDS011;20419;10.658;106.724;2023-04-29T00:02:12;8.52;;;7.65;;
34142;SDS011;20419;10.658;106.724;2023-04-29T00:04:39;8.48;;;7.57;;
34142;SDS011;20419;10.658;106.724;2023-04-29T00:07:05;9.75;;;7.90;;
34142;SDS011;20419;10.658;106.724;2023-04-29T00:09:33;8.27;;;7.45;;
34142;SDS011;20419;10.658;106.724;2023-04-29T00:12:02;8.40;;;7.47;;
34142;SDS011;20419;10.658;106.724;2023-04-29T00:14:28;8.70;;;7.38;;
34142;SDS011;20419;10.658;106.724;2023-04-29T00:16:55;9.00;;;8.10;;
34142;SDS011;20419;10.658;106.724;2023-04-29T00:19:22;8.70;;;7.80;;
34142;SDS011;20419;10.658;106.724;2023-04-29T00:21:49;9.45;;;8.18;;
34142;SDS011;20419;10.658;106.724;2023-04-29T00:24:16;9.25;;;8.32;;
34142;SDS011;20419;10.658;106.724;2023-04-29T00:26:43;9.30;;;8.32;;
34142;SDS011;20419;10.658;106.724;2023-04-29T00:29:10;9.50;;;8.52;;
34142;SDS011;20419;10.658;106.724;2023-04-29T00:31:36;8.43;;;7.63;;
34142;SDS011;20419;10.658;106.724;2023-04-29T00:34:03;9.15;;;8.25;;
34142;SDS011;20419;10.658;106.724;2023-04-29T00:36:30;8.55;;;7.70;;
34142;SDS011;20419;10.658;106.724;2023-04-29T00:38:57;9.10;;;8.02;;
34142;SDS011;20419;10.658;106.724;2023-04-29T00:41:24;9.13;;;8.18;;
34142;SDS011;20419;10.658;106.724;2023-04-29T00:43:51;9.50;;;8.48;;
34142;SDS011;20419;10.658;106.724;2023-04-29T00:46:18;9.52;;;8.60;;
34142;SDS011;20419;10.658;106.724;2023-04-29T00:48:44;9.00;;;8.10;;
34142;SDS011;20419;10.658;106.724;2023-04-29T00:51:11;10.05;;;8.45;;
34142;SDS011;20419;10.658;106.724;2023-04-29T00:53:38;10.60;;;8.77;;
34142;SDS011;20419;10.658;106.724;2023-04-29T00:56:05;9.63;;;8.73;;
34142;SDS011;20419;10.658;106.724;2023-04-29T00:58:33;8.85;;;7.95;;
34142;SDS011;20419;10.658;106.724;2023-04-29T01:01:01;9.48;;;8.18;;
34142;SDS011;20419;10.658;106.724;2023-04-29T01:03:29;9.32;;;8.07;;
34142;SDS011;20419;10.658;106.724;2023-04-29T01:11:29;9.15;;;8.23;;
34142;SDS011;20419;10.658;106.724;2023-04-29T01:13:58;10.10;;;8.50;;
34142;SDS011;20419;10.658;106.724;2023-04-29T01:16:41;9.13;;;8.10;;
34142;SDS011;20419;10.658;106.724;2023-04-29T01:21:46;10.00;;;8.93;;
34142;SDS011;20419;10.658;106.724;2023-04-29T01:24:14;8.68;;;7.82;;
34142;SDS011;20419;10.658;106.724;2023-04-29T01:26:45;9.23;;;8.30;;
34142;SDS011;20419;10.658;106.724;2023-04-29T01:31:57;10.38;;;9.02;;
34142;SDS011;20419;10.658;106.724;2023-04-29T01:34:38;10.48;;;9.10;;
34142;SDS011;20419;10.658;106.724;2023-04-29T01:45:02;8.93;;;8.02;;
34142;SDS011;20419;10.658;106.724;2023-04-29T01:47:31;10.02;;;8.38;;
34142;SDS011;20419;10.658;106.724;2023-04-29T01:49:58;12.05;;;9.13;;
34142;SDS011;20419;10.658;106.724;2023-04-29T01:52:26;9.82;;;8.80;;
34142;SDS011;20419;10.658;106.724;2023-04-29T01:54:53;9.15;;;8.25;;
34142;SDS011;20419;10.658;106.724;2023-04-29T01:57:20;8.57;;;7.68;;
34142;SDS011;20419;10.658;106.724;2023-04-29T01:59:47;9.85;;;8.32;;
34142;SDS011;20419;10.658;106.724;2023-04-29T02:02:14;10.48;;;8.13;;
34142;SDS011;20419;10.658;106.724;2023-04-29T02:04:45;8.85;;;7.95;;
34142;SDS011;20419;10.658;106.724;2023-04-29T02:07:13;9.68;;;8.23;;
34142;SDS011;20419;10.658;106.724;2023-04-29T02:09:40;9.52;;;8.13;;
34142;SDS011;20419;10.658;106.724;2023-04-29T02:12:06;9.68;;;8.38;;
34142;SDS011;20419;10.658;106.724;2023-04-29T02:14:33;9.75;;;8.23;;
34142;SDS011;20419;10.658;106.724;2023-04-29T02:17:00;8.45;;;7.65;;
34142;SDS011;20419;10.658;106.724;2023-04-29T02:19:29;8.75;;;7.85;;
34142;SDS011;20419;10.658;106.724;2023-04-29T02:21:56;9.88;;;8.35;;
34142;SDS011;20419;10.658;106.724;2023-04-29T02:24:23;10.07;;;8.00;;
34142;SDS011;20419;10.658;106.724;2023-04-29T02:26:49;9.65;;;7.80;;
34142;SDS011;20419;10.658;106.724;2023-04-29T02:29:16;9.85;;;8.85;;
34142;SDS011;20419;10.658;106.724;2023-04-29T02:31:43;8.80;;;7.70;;
34142;SDS011;20419;10.658;106.724;2023-04-29T02:34:10;9.38;;;8.30;;
34142;SDS011;20419;10.658;106.724;2023-04-29T02:36:36;9.35;;;8.43;;
34142;SDS011;20419;10.658;106.724;2023-04-29T02:39:03;8.77;;;7.88;;
34142;SDS011;20419;10.658;106.724;2023-04-29T02:41:30;9.70;;;8.70;;
34142;SDS011;20419;10.658;106.724;2023-04-29T02:43:57;9.55;;;7.70;;
34142;SDS011;20419;10.658;106.724;2023-04-29T02:46:24;8.50;;;7.70;;
34142;SDS011;20419;10.658;106.724;2023-04-29T02:48:51;8.55;;;7.60;;
34142;SDS011;20419;10.658;106.724;2023-04-29T02:51:18;9.55;;;8.40;;
34142;SDS011;20419;10.658;106.724;2023-04-29T02:53:44;8.95;;;7.32;;
34142;SDS011;20419;10.658;106.724;2023-04-29T02:56:11;9.48;;;8.07;;
34142;SDS011;20419;10.658;106.724;2023-04-29T02:58:38;9.75;;;8.52;;
34142;SDS011;20419;10.658;106.724;2023-04-29T03:01:06;9.43;;;8.43;;
34142;SDS011;20419;10.658;106.724;2023-04-29T03:03:33;8.82;;;7.95;;
34142;SDS011;20419;10.658;106.724;2023-04-29T03:06:00;9.60;;;8.05;;
34142;SDS011;20419;10.658;106.724;2023-04-29T03:08:27;9.55;;;8.27;;
34142;SDS011;20419;10.658;106.724;2023-04-29T03:10:54;9.20;;;7.68;;
34142;SDS011;20419;10.658;106.724;2023-04-29T03:13:21;9.25;;;7.82;;
34142;SDS011;20419;10.658;106.724;2023-04-29T03:15:48;10.32;;;7.57;;
34142;SDS011;20419;10.658;106.724;2023-04-29T03:18:14;8.95;;;8.02;;
34142;SDS011;20419;10.658;106.724;2023-04-29T03:20:41;8.88;;;7.43;;
34142;SDS011;20419;10.658;106.724;2023-04-29T03:23:08;8.98;;;7.93;;
34142;SDS011;20419;10.658;106.724;2023-04-29T03:25:35;9.10;;;8.20;;
34142;SDS011;20419;10.658;106.724;2023-04-29T03:28:01;8.82;;;7.85;;
34142;SDS011;20419;10.658;106.724;2023-04-29T03:30:28;8.07;;;7.25;;
34142;SDS011;20419;10.658;106.724;2023-04-29T03:32:55;9.55;;;8.45;;
34142;SDS011;20419;10.658;106.724;2023-04-29T03:35:22;9.18;;;7.88;;
34142;SDS011;20419;10.658;106.724;2023-04-29T03:37:49;8.40;;;7.57;;
34142;SDS011;20419;10.658;106.724;2023-04-29T03:40:15;8.88;;;7.97;;
34142;SDS011;20419;10.658;106.724;2023-04-29T03:42:42;9.02;;;8.13;;
34142;SDS011;20419;10.658;106.724;2023-04-29T03:45:09;8.60;;;7.70;;
34142;SDS011;20419;10.658;106.724;2023-04-29T03:47:38;9.43;;;8.27;;
34142;SDS011;20419;10.658;106.724;2023-04-29T03:50:05;8.63;;;7.53;;
34142;SDS011;20419;10.658;106.724;2023-04-29T03:52:32;9.00;;;8.10;;
34142;SDS011;20419;10.658;106.724;2023-04-29T03:55:02;8.55;;;7.75;;
34142;SDS011;20419;10.658;106.724;2023-04-29T03:57:29;9.02;;;8.00;;
34142;SDS011;20419;10.658;106.724;2023-04-29T03:59:56;9.05;;;8.15;;
34142;SDS011;20419;10.658;106.724;2023-04-29T04:02:22;8.45;;;7.15;;
34142;SDS011;20419;10.658;106.724;2023-04-29T04:04:49;8.30;;;7.50;;
34142;SDS011;20419;10.658;106.724;2023-04-29T04:07:16;8.88;;;7.97;;
34142;SDS011;20419;10.658;106.724;2023-04-29T04:09:43;9.75;;;8.45;;
34142;SDS011;20419;10.658;106.724;2023-04-29T04:12:10;8.73;;;7.80;;
34142;SDS011;20419;10.658;106.724;2023-04-29T04:14:37;8.48;;;7.65;;
34142;SDS011;20419;10.658;106.724;2023-04-29T04:17:04;9.95;;;7.60;;
34142;SDS011;20419;10.658;106.724;2023-04-29T04:19:30;8.35;;;7.47;;
34142;SDS011;20419;10.658;106.724;2023-04-29T04:21:58;8.35;;;7.28;;
34142;SDS011;20419;10.658;106.724;2023-04-29T04:24:24;9.07;;;8.13;;
34142;SDS011;20419;10.658;106.724;2023-04-29T04:26:51;8.90;;;8.00;;
34142;SDS011;20419;10.658;106.724;2023-04-29T04:29:18;8.88;;;7.97;;
34142;SDS011;20419;10.658;106.724;2023-04-29T04:31:47;8.88;;;7.97;;
34142;SDS011;20419;10.658;106.724;2023-04-29T04:34:13;9.18;;;8.15;;
34142;SDS011;20419;10.658;106.724;2023-04-29T04:36:40;9.60;;;8.65;;
34142;SDS011;20419;10.658;106.724;2023-04-29T04:39:07;9.25;;;8.27;;
34142;SDS011;20419;10.658;106.724;2023-04-29T04:41:34;9.48;;;8.57;;
34142;SDS011;20419;10.658;106.724;2023-04-29T04:44:01;10.05;;;9.02;;
34142;SDS011;20419;10.658;106.724;2023-04-29T04:46:27;9.98;;;8.95;;
34142;SDS011;20419;10.658;106.724;2023-04-29T04:48:57;9.65;;;8.65;;
34142;SDS011;20419;10.658;106.724;2023-04-29T04:51:24;8.82;;;7.93;;
34142;SDS011;20419;10.658;106.724;2023-04-29T04:53:53;9.32;;;8.43;;
34142;SDS011;20419;10.658;106.724;2023-04-29T04:56:20;9.95;;;8.82;;
34142;SDS011;20419;10.658;106.724;2023-04-29T04:58:47;10.18;;;8.95;;
34142;SDS011;20419;10.658;106.724;2023-04-29T05:01:13;9.50;;;8.60;;
34142;SDS011;20419;10.658;106.724;2023-04-29T05:03:40;10.43;;;8.82;;
34142;SDS011;20419;10.658;106.724;2023-04-29T05:06:07;9.50;;;8.45;;
34142;SDS011;20419;10.658;106.724;2023-04-29T05:08:34;9.25;;;8.35;;
34142;SDS011;20419;10.658;106.724;2023-04-29T05:11:00;9.63;;;8.63;;
34142;SDS011;20419;10.658;106.724;2023-04-29T05:13:27;9.45;;;8.43;;
34142;SDS011;20419;10.658;106.724;2023-04-29T05:15:54;10.68;;;8.82;;
34142;SDS011;20419;10.658;106.724;2023-04-29T05:18:21;9.70;;;8.68;;
34142;SDS011;20419;10.658;106.724;2023-04-29T05:20:47;9.68;;;8.68;;
34142;SDS011;20419;10.658;106.724;2023-04-29T05:23:14;9.90;;;8.48;;
34142;SDS011;20419;10.658;106.724;2023-04-29T05:25:41;10.75;;;9.65;;
34142;SDS011;20419;10.658;106.724;2023-04-29T05:28:08;9.15;;;7.97;;
34142;SDS011;20419;10.658;106.724;2023-04-29T05:30:34;10.50;;;9.50;;
34142;SDS011;20419;10.658;106.724;2023-04-29T05:33:02;9.82;;;8.63;;
34142;SDS011;20419;10.658;106.724;2023-04-29T05:35:29;10.27;;;9.20;;
34142;SDS011;20419;10.658;106.724;2023-04-29T05:37:56;9.45;;;8.50;;
34142;SDS011;20419;10.658;106.724;2023-04-29T05:40:23;9.55;;;8.65;;
34142;SDS011;20419;10.658;106.724;2023-04-29T05:42:49;10.38;;;9.38;;
34142;SDS011;20419;10.658;106.724;2023-04-29T05:45:16;9.40;;;8.20;;
34142;SDS011;20419;10.658;106.724;2023-04-29T05:47:43;10.43;;;9.32;;
34142;SDS011;20419;10.658;106.724;2023-04-29T05:50:10;9.77;;;8.77;;
34142;SDS011;20419;10.658;106.724;2023-04-29T05:52:37;10.65;;;9.27;;
34142;SDS011;20419;10.658;106.724;2023-04-29T05:55:04;9.80;;;8.80;;
34142;SDS011;20419;10.658;106.724;2023-04-29T05:57:34;11.30;;;10.13;;
34142;SDS011;20419;10.658;106.724;2023-04-29T06:00:00;9.73;;;8.63;;
34142;SDS011;20419;10.658;106.724;2023-04-29T06:02:28;10.77;;;9.60;;
34142;SDS011;20419;10.658;106.724;2023-04-29T06:04:55;10.48;;;9.38;;
34142;SDS011;20419;10.658;106.724;2023-04-29T06:07:22;11.07;;;9.88;;
34142;SDS011;20419;10.658;106.724;2023-04-29T06:09:49;10.63;;;9.57;;
34142;SDS011;20419;10.658;106.724;2023-04-29T06:12:16;10.68;;;9.68;;
34142;SDS011;20419;10.658;106.724;2023-04-29T06:14:45;10.85;;;9.75;;
34142;SDS011;20419;10.658;106.724;2023-04-29T06:17:12;10.85;;;9.43;;
34142;SDS011;20419;10.658;106.724;2023-04-29T06:19:39;10.95;;;9.70;;
34142;SDS011;20419;10.658;106.724;2023-04-29T06:22:06;11.48;;;10.20;;
34142;SDS011;20419;10.658;106.724;2023-04-29T06:24:32;10.48;;;9.38;;
34142;SDS011;20419;10.658;106.724;2023-04-29T06:26:59;10.52;;;9.40;;
34142;SDS011;20419;10.658;106.724;2023-04-29T06:29:28;12.90;;;10.30;;
34142;SDS011;20419;10.658;106.724;2023-04-29T06:31:55;10.80;;;9.77;;
34142;SDS011;20419;10.658;106.724;2023-04-29T06:34:22;11.05;;;9.27;;
34142;SDS011;20419;10.658;106.724;2023-04-29T06:36:49;10.60;;;9.55;;
34142;SDS011;20419;10.658;106.724;2023-04-29T06:39:16;10.88;;;9.80;;
34142;SDS011;20419;10.658;106.724;2023-04-29T06:41:43;10.50;;;9.48;;
34142;SDS011;20419;10.658;106.724;2023-04-29T06:44:11;10.40;;;9.40;;
34142;SDS011;20419;10.658;106.724;2023-04-29T06:46:37;10.73;;;9.63;;
34142;SDS011;20419;10.658;106.724;2023-04-29T06:49:04;11.15;;;9.95;;
34142;SDS011;20419;10.658;106.724;2023-04-29T06:51:31;10.38;;;9.27;;
34142;SDS011;20419;10.658;106.724;2023-04-29T06:53:58;9.88;;;8.88;;
34142;SDS011;20419;10.658;106.724;2023-04-29T06:56:25;11.00;;;9.90;;
34142;SDS011;20419;10.658;106.724;2023-04-29T06:58:52;10.45;;;9.35;;
34142;SDS011;20419;10.658;106.724;2023-04-29T07:01:19;10.68;;;9.18;;
34142;SDS011;20419;10.658;106.724;2023-04-29T07:03:45;11.15;;;10.05;;
34142;SDS011;20419;10.658;106.724;2023-04-29T07:06:12;10.75;;;9.65;;
34142;SDS011;20419;10.658;106.724;2023-04-29T07:08:39;10.95;;;9.85;;
34142;SDS011;20419;10.658;106.724;2023-04-29T07:11:06;10.20;;;9.05;;
34142;SDS011;20419;10.658;106.724;2023-04-29T07:13:32;12.02;;;10.77;;
34142;SDS011;20419;10.658;106.724;2023-04-29T07:15:59;10.70;;;9.68;;
34142;SDS011;20419;10.658;106.724;2023-04-29T07:18:26;11.75;;;10.57;;
34142;SDS011;20419;10.658;106.724;2023-04-29T07:20:53;10.73;;;9.63;;
34142;SDS011;20419;10.658;106.724;2023-04-29T07:23:20;10.68;;;9.57;;
34142;SDS011;20419;10.658;106.724;2023-04-29T07:25:47;10.18;;;9.18;;
34142;SDS011;20419;10.658;106.724;2023-04-29T07:28:14;11.10;;;10.00;;
34142;SDS011;20419;10.658;106.724;2023-04-29T07:30:41;11.35;;;10.25;;
34142;SDS011;20419;10.658;106.724;2023-04-29T07:33:08;11.13;;;10.05;;
34142;SDS011;20419;10.658;106.724;2023-04-29T07:35:35;10.68;;;9.57;;
34142;SDS011;20419;10.658;106.724;2023-04-29T07:38:02;11.15;;;10.05;;
34142;SDS011;20419;10.658;106.724;2023-04-29T07:40:28;11.00;;;9.25;;
34142;SDS011;20419;10.658;106.724;2023-04-29T07:42:55;10.90;;;9.57;;
34142;SDS011;20419;10.658;106.724;2023-04-29T07:45:22;10.48;;;9.48;;
34142;SDS011;20419;10.658;106.724;2023-04-29T07:47:49;11.05;;;9.80;;
34142;SDS011;20419;10.658;106.724;2023-04-29T07:50:15;11.13;;;9.93;;
34142;SDS011;20419;10.658;106.724;2023-04-29T07:52:42;10.50;;;9.50;;
34142;SDS011;20419;10.658;106.724;2023-04-29T07:55:09;10.30;;;9.30;;
34142;SDS011;20419;10.658;106.724;2023-04-29T07:57:36;10.52;;;9.52;;
34142;SDS011;20419;10.658;106.724;2023-04-29T08:00:03;11.27;;;10.10;;
34142;SDS011;20419;10.658;106.724;2023-04-29T08:02:29;10.80;;;9.70;;
34142;SDS011;20419;10.658;106.724;2023-04-29T08:04:56;10.35;;;9.35;;
34142;SDS011;20419;10.658;106.724;2023-04-29T08:07:25;10.93;;;9.60;;
34142;SDS011;20419;10.658;106.724;2023-04-29T08:09:51;11.18;;;10.07;;
34142;SDS011;20419;10.658;106.724;2023-04-29T08:12:18;11.20;;;10.10;;
34142;SDS011;20419;10.658;106.724;2023-04-29T08:14:45;11.23;;;9.60;;
34142;SDS011;20419;10.658;106.724;2023-04-29T08:17:12;10.85;;;9.75;;
34142;SDS011;20419;10.658;106.724;2023-04-29T08:19:38;10.52;;;9.43;;
34142;SDS011;20419;10.658;106.724;2023-04-29T08:22:05;10.05;;;9.05;;
34142;SDS011;20419;10.658;106.724;2023-04-29T08:24:32;10.45;;;9.35;;
34142;SDS011;20419;10.658;106.724;2023-04-29T08:26:59;11.43;;;10.32;;
34142;SDS011;20419;10.658;106.724;2023-04-29T08:29:26;10.50;;;9.50;;
34142;SDS011;20419;10.658;106.724;2023-04-29T08:31:53;10.40;;;9.27;;
34142;SDS011;20419;10.658;106.724;2023-04-29T08:34:20;9.82;;;8.82;;
34142;SDS011;20419;10.658;106.724;2023-04-29T08:36:46;9.77;;;8.80;;
34142;SDS011;20419;10.658;106.724;2023-04-29T08:39:13;10.18;;;9.18;;
34142;SDS011;20419;10.658;106.724;2023-04-29T08:41:40;9.75;;;8.85;;
34142;SDS011;20419;10.658;106.724;2023-04-29T08:44:09;10.13;;;9.13;;
34142;SDS011;20419;10.658;106.724;2023-04-29T08:46:37;9.98;;;8.98;;
34142;SDS011;20419;10.658;106.724;2023-04-29T08:49:04;10.43;;;9.32;;
34142;SDS011;20419;10.658;106.724;2023-04-29T08:51:31;9.57;;;8.68;;
34142;SDS011;20419;10.658;106.724;2023-04-29T08:53:59;10.07;;;9.10;;
34142;SDS011;20419;10.658;106.724;2023-04-29T08:56:25;10.48;;;9.43;;
34142;SDS011;20419;10.658;106.724;2023-04-29T08:58:53;9.55;;;8.55;;
34142;SDS011;20419;10.658;106.724;2023-04-29T09:01:22;9.90;;;8.90;;
34142;SDS011;20419;10.658;106.724;2023-04-29T09:06:29;9.68;;;8.68;;
34142;SDS011;20419;10.658;106.724;2023-04-29T09:08:58;9.75;;;8.75;;
34142;SDS011;20419;10.658;106.724;2023-04-29T09:11:26;9.93;;;8.93;;
34142;SDS011;20419;10.658;106.724;2023-04-29T09:14:02;10.15;;;9.15;;
34142;SDS011;20419;10.658;106.724;2023-04-29T09:16:32;9.98;;;8.98;;
34142;SDS011;20419;10.658;106.724;2023-04-29T09:19:01;11.07;;;9.98;;
34142;SDS011;20419;10.658;106.724;2023-04-29T09:21:29;10.00;;;8.93;;
34142;SDS011;20419;10.658;106.724;2023-04-29T09:23:59;10.13;;;9.07;;
34142;SDS011;20419;10.658;106.724;2023-04-29T09:26:27;10.27;;;9.20;;
34142;SDS011;20419;10.658;106.724;2023-04-29T09:29:06;9.73;;;8.73;;
34142;SDS011;20419;10.658;106.724;2023-04-29T09:31:33;9.48;;;8.55;;
34142;SDS011;20419;10.658;106.724;2023-04-29T09:34:00;9.57;;;8.57;;
34142;SDS011;20419;10.658;106.724;2023-04-29T09:36:43;9.55;;;8.57;;
34142;SDS011;20419;10.658;106.724;2023-04-29T09:39:19;9.63;;;8.68;;
34142;SDS011;20419;10.658;106.724;2023-04-29T09:44:16;9.30;;;8.40;;
34142;SDS011;20419;10.658;106.724;2023-04-29T09:46:52;9.40;;;8.52;;
34142;SDS011;20419;10.658;106.724;2023-04-29T09:51:56;9.68;;;8.68;;
34142;SDS011;20419;10.658;106.724;2023-04-29T09:54:23;8.93;;;8.02;;
34142;SDS011;20419;10.658;106.724;2023-04-29T09:56:53;8.82;;;8.00;;
34142;SDS011;20419;10.658;106.724;2023-04-29T09:59:20;10.68;;;9.30;;
34142;SDS011;20419;10.658;106.724;2023-04-29T10:01:47;9.45;;;8.45;;
34142;SDS011;20419;10.658;106.724;2023-04-29T10:04:15;9.57;;;8.57;;
34142;SDS011;20419;10.658;106.724;2023-04-29T10:06:43;9.25;;;8.35;;
34142;SDS011;20419;10.658;106.724;2023-04-29T10:09:12;9.43;;;8.43;;
34142;SDS011;20419;10.658;106.724;2023-04-29T10:11:45;9.10;;;8.20;;
34142;SDS011;20419;10.658;106.724;2023-04-29T10:14:20;9.60;;;8.57;;
34142;SDS011;20419;10.658;106.724;2023-04-29T10:19:31;9.02;;;8.15;;
34142;SDS011;20419;10.658;106.724;2023-04-29T10:22:03;8.95;;;8.05;;
34142;SDS011;20419;10.658;106.724;2023-04-29T10:24:31;9.32;;;8.32;;
34142;SDS011;20419;10.658;106.724;2023-04-29T10:26:58;10.15;;;9.15;;
34142;SDS011;20419;10.658;106.724;2023-04-29T10:29:25;9.82;;;8.82;;
34142;SDS011;20419;10.658;106.724;2023-04-29T10:31:53;9.02;;;8.07;;
34142;SDS011;20419;10.658;106.724;2023-04-29T10:34:21;9.20;;;8.30;;
34142;SDS011;20419;10.658;106.724;2023-04-29T10:36:48;9.30;;;8.40;;
34142;SDS011;20419;10.658;106.724;2023-04-29T10:39:20;8.90;;;8.00;;
34142;SDS011;20419;10.658;106.724;2023-04-29T10:41:49;9.15;;;8.25;;
34142;SDS011;20419;10.658;106.724;2023-04-29T10:44:16;9.70;;;8.80;;
34142;SDS011;20419;10.658;106.724;2023-04-29T10:46:43;9.48;;;8.48;;
34142;SDS011;20419;10.658;106.724;2023-04-29T10:49:10;9.32;;;8.32;;
34142;SDS011;20419;10.658;106.724;2023-04-29T10:51:41;9.10;;;8.20;;
34142;SDS011;20419;10.658;106.724;2023-04-29T10:54:09;9.02;;;8.15;;
34142;SDS011;20419;10.658;106.724;2023-04-29T10:56:46;9.55;;;8.55;;
34142;SDS011;20419;10.658;106.724;2023-04-29T10:59:15;7.97;;;7.20;;
34142;SDS011;20419;10.658;106.724;2023-04-29T11:01:43;8.80;;;7.95;;
34142;SDS011;20419;10.658;106.724;2023-04-29T11:04:10;8.77;;;7.35;;
34142;SDS011;20419;10.658;106.724;2023-04-29T11:06:38;8.65;;;7.75;;
34142;SDS011;20419;10.658;106.724;2023-04-29T11:14:08;8.52;;;7.72;;
34142;SDS011;20419;10.658;106.724;2023-04-29T11:16:36;9.23;;;7.72;;
34142;SDS011;20419;10.658;106.724;2023-04-29T11:19:04;8.73;;;7.82;;
34142;SDS011;20419;10.658;106.724;2023-04-29T11:21:34;8.17;;;7.37;;
34142;SDS011;20419;10.658;106.724;2023-04-29T11:24:02;8.20;;;7.40;;
34142;SDS011;20419;10.658;106.724;2023-04-29T11:26:34;9.10;;;8.20;;
34142;SDS011;20419;10.658;106.724;2023-04-29T11:29:03;7.38;;;6.65;;
34142;SDS011;20419;10.658;106.724;2023-04-29T11:31:32;8.07;;;7.28;;
34142;SDS011;20419;10.658;106.724;2023-04-29T11:33:59;9.38;;;7.85;;
34142;SDS011;20419;10.658;106.724;2023-04-29T11:36:26;8.50;;;7.63;;
34142;SDS011;20419;10.658;106.724;2023-04-29T11:38:53;8.73;;;7.82;;
34142;SDS011;20419;10.658;106.724;2023-04-29T11:41:20;8.13;;;7.32;;
34142;SDS011;20419;10.658;106.724;2023-04-29T11:43:53;8.43;;;7.53;;
34142;SDS011;20419;10.658;106.724;2023-04-29T11:46:21;8.18;;;7.38;;
34142;SDS011;20419;10.658;106.724;2023-04-29T11:48:48;8.77;;;7.75;;
34142;SDS011;20419;10.658;106.724;2023-04-29T11:51:15;8.05;;;7.15;;
34142;SDS011;20419;10.658;106.724;2023-04-29T11:53:43;7.95;;;7.15;;
34142;SDS011;20419;10.658;106.724;2023-04-29T11:56:10;8.55;;;7.75;;
34142;SDS011;20419;10.658;106.724;2023-04-29T11:58:37;8.57;;;7.68;;
34142;SDS011;20419;10.658;106.724;2023-04-29T12:01:04;7.90;;;7.10;;
34142;SDS011;20419;10.658;106.724;2023-04-29T12:03:31;7.95;;;6.93;;
34142;SDS011;20419;10.658;106.724;2023-04-29T12:05:58;9.02;;;8.15;;
34142;SDS011;20419;10.658;106.724;2023-04-29T12:08:28;8.70;;;7.80;;
34142;SDS011;20419;10.658;106.724;2023-04-29T12:10:56;7.93;;;7.13;;
34142;SDS011;20419;10.658;106.724;2023-04-29T12:13:23;7.60;;;6.90;;
34142;SDS011;20419;10.658;106.724;2023-04-29T12:15:51;8.02;;;7.22;;
34142;SDS011;20419;10.658;106.724;2023-04-29T12:18:18;8.40;;;7.60;;
34142;SDS011;20419;10.658;106.724;2023-04-29T12:20:47;8.10;;;7.20;;
34142;SDS011;20419;10.658;106.724;2023-04-29T12:23:21;7.95;;;7.03;;
34142;SDS011;20419;10.658;106.724;2023-04-29T12:25:55;7.80;;;7.00;;
34142;SDS011;20419;10.658;106.724;2023-04-29T12:28:22;7.68;;;6.95;;
34142;SDS011;20419;10.658;106.724;2023-04-29T12:30:49;7.90;;;7.10;;
34142;SDS011;20419;10.658;106.724;2023-04-29T12:35:47;7.85;;;7.03;;
34142;SDS011;20419;10.658;106.724;2023-04-29T12:38:21;7.55;;;6.75;;
34142;SDS011;20419;10.658;106.724;2023-04-29T12:40:48;7.95;;;7.15;;
34142;SDS011;20419;10.658;106.724;2023-04-29T12:43:16;7.68;;;6.80;;
34142;SDS011;20419;10.658;106.724;2023-04-29T12:45:43;7.37;;;6.67;;
34142;SDS011;20419;10.658;106.724;2023-04-29T12:48:10;7.53;;;6.75;;
34142;SDS011;20419;10.658;106.724;2023-04-29T12:50:38;7.55;;;6.85;;
34142;SDS011;20419;10.658;106.724;2023-04-29T12:53:06;8.63;;;7.80;;
34142;SDS011;20419;10.658;106.724;2023-04-29T12:55:33;6.97;;;6.28;;
34142;SDS011;20419;10.658;106.724;2023-04-29T12:58:01;7.07;;;6.38;;
34142;SDS011;20419;10.658;106.724;2023-04-29T13:00:28;7.72;;;6.93;;
34142;SDS011;20419;10.658;106.724;2023-04-29T13:02:55;8.43;;;7.53;;
34142;SDS011;20419;10.658;106.724;2023-04-29T13:05:22;7.57;;;6.88;;
34142;SDS011;20419;10.658;106.724;2023-04-29T13:07:48;7.63;;;6.85;;
34142;SDS011;20419;10.658;106.724;2023-04-29T13:10:18;7.55;;;6.72;;
34142;SDS011;20419;10.658;106.724;2023-04-29T13:12:45;7.47;;;6.78;;
34142;SDS011;20419;10.658;106.724;2023-04-29T13:15:12;7.63;;;6.88;;
34142;SDS011;20419;10.658;106.724;2023-04-29T13:17:39;7.85;;;7.05;;
34142;SDS011;20419;10.658;106.724;2023-04-29T13:20:06;7.38;;;6.68;;
34142;SDS011;20419;10.658;106.724;2023-04-29T13:22:33;8.02;;;7.22;;
34142;SDS011;20419;10.658;106.724;2023-04-29T13:25:01;7.47;;;6.77;;
34142;SDS011;20419;10.658;106.724;2023-04-29T13:27:29;8.23;;;6.97;;
34142;SDS011;20419;10.658;106.724;2023-04-29T13:29:55;7.95;;;7.03;;
34142;SDS011;20419;10.658;106.724;2023-04-29T13:32:22;7.72;;;7.03;;
34142;SDS011;20419;10.658;106.724;2023-04-29T13:34:49;7.75;;;7.05;;
34142;SDS011;20419;10.658;106.724;2023-04-29T13:37:16;7.50;;;6.80;;
34142;SDS011;20419;10.658;106.724;2023-04-29T13:39:44;7.75;;;6.95;;
34142;SDS011;20419;10.658;106.724;2023-04-29T13:42:11;7.13;;;6.43;;
34142;SDS011;20419;10.658;106.724;2023-04-29T13:44:38;7.35;;;6.65;;
34142;SDS011;20419;10.658;106.724;2023-04-29T13:47:14;7.75;;;6.95;;
34142;SDS011;20419;10.658;106.724;2023-04-29T13:49:41;7.43;;;6.63;;
34142;SDS011;20419;10.658;106.724;2023-04-29T13:52:11;6.90;;;6.20;;
34142;SDS011;20419;10.658;106.724;2023-04-29T13:54:38;8.02;;;7.13;;
34142;SDS011;20419;10.658;106.724;2023-04-29T13:57:05;7.65;;;6.88;;
34142;SDS011;20419;10.658;106.724;2023-04-29T13:59:32;7.20;;;6.50;;
34142;SDS011;20419;10.658;106.724;2023-04-29T14:01:59;7.72;;;6.93;;
34142;SDS011;20419;10.658;106.724;2023-04-29T14:04:26;7.35;;;6.55;;
34142;SDS011;20419;10.658;106.724;2023-04-29T14:06:53;7.45;;;6.60;;
34142;SDS011;20419;10.658;106.724;2023-04-29T14:09:20;7.00;;;6.30;;
34142;SDS011;20419;10.658;106.724;2023-04-29T14:11:48;7.32;;;6.53;;
34142;SDS011;20419;10.658;106.724;2023-04-29T14:14:15;7.72;;;6.78;;
34142;SDS011;20419;10.658;106.724;2023-04-29T14:16:42;7.22;;;6.53;;
34142;SDS011;20419;10.658;106.724;2023-04-29T14:19:09;7.57;;;6.20;;
34142;SDS011;20419;10.658;106.724;2023-04-29T14:21:36;7.15;;;6.45;;
34142;SDS011;20419;10.658;106.724;2023-04-29T14:24:03;7.75;;;6.82;;
34142;SDS011;20419;10.658;106.724;2023-04-29T14:26:30;8.43;;;6.82;;
34142;SDS011;20419;10.658;106.724;2023-04-29T14:28:57;7.38;;;6.65;;
34142;SDS011;20419;10.658;106.724;2023-04-29T14:31:26;8.02;;;6.72;;
34142;SDS011;20419;10.658;106.724;2023-04-29T14:33:54;7.18;;;6.47;;
34142;SDS011;20419;10.658;106.724;2023-04-29T14:36:21;7.82;;;6.93;;
34142;SDS011;20419;10.658;106.724;2023-04-29T14:38:48;7.63;;;6.82;;
34142;SDS011;20419;10.658;106.724;2023-04-29T14:41:15;7.68;;;6.88;;
34142;SDS011;20419;10.658;106.724;2023-04-29T14:43:42;8.32;;;7.25;;
34142;SDS011;20419;10.658;106.724;2023-04-29T14:46:09;7.82;;;7.03;;
34142;SDS011;20419;10.658;106.724;2023-04-29T14:48:36;7.35;;;6.53;;
34142;SDS011;20419;10.658;106.724;2023-04-29T14:51:02;7.97;;;7.10;;
34142;SDS011;20419;10.658;106.724;2023-04-29T14:53:30;7.55;;;6.75;;
34142;SDS011;20419;10.658;106.724;2023-04-29T14:55:57;8.95;;;6.80;;
34142;SDS011;20419;10.658;106.724;2023-04-29T14:58:24;6.97;;;6.28;;